sensor_id;sensor_type;location;lat;lon;timestamp;pressure;altitude;pressure_sealevel;temperature;humidity
73245;BME280;61460;41.158;-73.238;2023-02-28T00:00:48;101162.07;;;23.78;30.19
73245;BME280;61460;41.158;-73.238;2023-02-28T00:03:18;101162.57;;;23.81;30.20
73245;BME280;61460;41.158;-73.238;2023-02-28T00:05:49;101144.41;;;23.74;30.10
73245;BME280;61460;41.158;-73.238;2023-02-28T00:08:20;101144.73;;;23.70;30.15
73245;BME280;61460;41.158;-73.238;2023-02-28T00:10:50;101125.06;;;23.73;29.86
73245;BME280;61460;41.158;-73.238;2023-02-28T00:13:20;101112.44;;;23.75;29.99
73245;BME280;61460;41.158;-73.238;2023-02-28T00:15:59;101093.42;;;23.72;29.95
73245;BME280;61460;41.158;-73.238;2023-02-28T00:18:21;101074.75;;;23.63;30.19
73245;BME280;61460;41.158;-73.238;2023-02-28T00:20:51;101067.38;;;23.59;29.57
73245;BME280;61460;41.158;-73.238;2023-02-28T00:23:22;101066.17;;;23.63;29.96
73245;BME280;61460;41.158;-73.238;2023-02-28T00:25:53;101067.95;;;23.86;29.81
73245;BME280;61460;41.158;-73.238;2023-02-28T00:28:23;101067.67;;;23.64;29.72
73245;BME280;61460;41.158;-73.238;2023-02-28T00:30:53;101052.23;;;23.64;29.90
73245;BME280;61460;41.158;-73.238;2023-02-28T00:33:23;101031.94;;;23.65;30.15
73245;BME280;61460;41.158;-73.238;2023-02-28T00:36:01;101032.45;;;23.69;29.60
73245;BME280;61460;41.158;-73.238;2023-02-28T00:38:24;101015.73;;;23.67;29.57
73245;BME280;61460;41.158;-73.238;2023-02-28T00:40:54;100994.99;;;23.68;29.57
73245;BME280;61460;41.158;-73.238;2023-02-28T00:43:24;100985.05;;;23.63;29.15
73245;BME280;61460;41.158;-73.238;2023-02-28T00:45:55;100999.27;;;23.54;29.11
73245;BME280;61460;41.158;-73.238;2023-02-28T00:48:25;101005.48;;;23.41;29.71
73245;BME280;61460;41.158;-73.238;2023-02-28T00:50:55;101020.35;;;23.75;29.35
73245;BME280;61460;41.158;-73.238;2023-02-28T00:53:26;101024.74;;;23.56;29.13
73245;BME280;61460;41.158;-73.238;2023-02-28T00:55:57;101017.57;;;23.65;29.54
73245;BME280;61460;41.158;-73.238;2023-02-28T00:58:27;101029.76;;;23.69;29.83
73245;BME280;61460;41.158;-73.238;2023-02-28T01:00:57;101034.94;;;23.67;29.88
73245;BME280;61460;41.158;-73.238;2023-02-28T01:03:28;101024.08;;;23.61;30.09
73245;BME280;61460;41.158;-73.238;2023-02-28T01:05:58;101030.41;;;23.64;30.07
73245;BME280;61460;41.158;-73.238;2023-02-28T01:08:31;101035.15;;;23.62;29.82
73245;BME280;61460;41.158;-73.238;2023-02-28T01:11:07;101033.69;;;23.60;29.98
73245;BME280;61460;41.158;-73.238;2023-02-28T01:13:30;101025.97;;;23.64;29.17
73245;BME280;61460;41.158;-73.238;2023-02-28T01:16:01;101019.53;;;23.43;29.55
73245;BME280;61460;41.158;-73.238;2023-02-28T01:18:31;101029.90;;;23.79;29.27
73245;BME280;61460;41.158;-73.238;2023-02-28T01:21:04;101075.36;;;23.51;29.60
73245;BME280;61460;41.158;-73.238;2023-02-28T01:23:31;101116.26;;;23.57;29.71
73245;BME280;61460;41.158;-73.238;2023-02-28T01:26:05;101151.15;;;23.64;29.87
73245;BME280;61460;41.158;-73.238;2023-02-28T01:28:32;101178.71;;;23.63;29.97
73245;BME280;61460;41.158;-73.238;2023-02-28T01:31:03;101189.85;;;23.64;29.84
73245;BME280;61460;41.158;-73.238;2023-02-28T01:33:34;101187.62;;;23.63;30.03
73245;BME280;61460;41.158;-73.238;2023-02-28T01:36:06;101177.46;;;23.62;29.88
73245;BME280;61460;41.158;-73.238;2023-02-28T01:38:34;101129.17;;;23.48;29.34
73245;BME280;61460;41.158;-73.238;2023-02-28T01:41:06;101102.62;;;23.42;29.54
73245;BME280;61460;41.158;-73.238;2023-02-28T01:46:06;101045.11;;;23.51;29.53
73245;BME280;61460;41.158;-73.238;2023-02-28T01:48:39;101006.05;;;23.48;29.85
73245;BME280;61460;41.158;-73.238;2023-02-28T01:51:10;100976.88;;;23.46;30.00
73245;BME280;61460;41.158;-73.238;2023-02-28T01:53:42;100969.11;;;23.38;29.78
73245;BME280;61460;41.158;-73.238;2023-02-28T01:56:10;101000.93;;;23.31;29.72
73245;BME280;61460;41.158;-73.238;2023-02-28T01:58:39;101007.78;;;23.30;29.60
73245;BME280;61460;41.158;-73.238;2023-02-28T02:01:09;101017.00;;;23.30;28.91
73245;BME280;61460;41.158;-73.238;2023-02-28T02:03:40;101035.68;;;23.05;29.88
73245;BME280;61460;41.158;-73.238;2023-02-28T02:06:11;101035.07;;;23.16;29.83
73245;BME280;61460;41.158;-73.238;2023-02-28T02:08:41;101012.78;;;23.12;30.16
73245;BME280;61460;41.158;-73.238;2023-02-28T02:11:14;101008.83;;;23.12;30.55
73245;BME280;61460;41.158;-73.238;2023-02-28T02:13:56;100997.48;;;23.12;30.11
73245;BME280;61460;41.158;-73.238;2023-02-28T02:16:25;100988.58;;;23.10;30.37
73245;BME280;61460;41.158;-73.238;2023-02-28T02:18:48;100988.82;;;23.06;30.34
73245;BME280;61460;41.158;-73.238;2023-02-28T02:28:59;101031.07;;;23.10;30.23
73245;BME280;61460;41.158;-73.238;2023-02-28T02:31:30;101036.54;;;23.12;30.55
73245;BME280;61460;41.158;-73.238;2023-02-28T02:36:22;101030.59;;;23.19;30.35
73245;BME280;61460;41.158;-73.238;2023-02-28T02:38:53;101024.97;;;23.22;30.46
73245;BME280;61460;41.158;-73.238;2023-02-28T02:41:26;101006.19;;;23.06;30.08
73245;BME280;61460;41.158;-73.238;2023-02-28T02:43:53;100987.41;;;23.04;30.29
73245;BME280;61460;41.158;-73.238;2023-02-28T02:46:25;100961.79;;;23.36;30.06
73245;BME280;61460;41.158;-73.238;2023-02-28T02:48:54;100976.48;;;23.22;30.14
73245;BME280;61460;41.158;-73.238;2023-02-28T02:51:24;100970.47;;;23.28;30.31
73245;BME280;61460;41.158;-73.238;2023-02-28T02:53:56;100963.37;;;23.30;30.44
73245;BME280;61460;41.158;-73.238;2023-02-28T02:56:28;100960.46;;;23.33;30.42
73245;BME280;61460;41.158;-73.238;2023-02-28T02:58:58;100963.00;;;23.34;30.09
73245;BME280;61460;41.158;-73.238;2023-02-28T03:01:26;100978.73;;;23.32;29.72
73245;BME280;61460;41.158;-73.238;2023-02-28T03:03:59;100971.70;;;23.12;30.12
73245;BME280;61460;41.158;-73.238;2023-02-28T03:06:27;100960.15;;;23.03;30.38
73245;BME280;61460;41.158;-73.238;2023-02-28T03:08:57;100958.32;;;23.12;30.18
73245;BME280;61460;41.158;-73.238;2023-02-28T03:11:29;100968.42;;;23.16;30.47
73245;BME280;61460;41.158;-73.238;2023-02-28T03:14:09;100962.58;;;23.16;30.56
73245;BME280;61460;41.158;-73.238;2023-02-28T03:16:36;100960.20;;;23.19;30.27
73245;BME280;61460;41.158;-73.238;2023-02-28T03:19:10;100954.40;;;23.18;30.42
73245;BME280;61460;41.158;-73.238;2023-02-28T03:21:35;100940.86;;;22.94;30.37
73245;BME280;61460;41.158;-73.238;2023-02-28T03:24:05;100919.95;;;22.86;30.44
73245;BME280;61460;41.158;-73.238;2023-02-28T03:26:36;100893.46;;;22.87;30.64
73245;BME280;61460;41.158;-73.238;2023-02-28T03:29:07;100869.61;;;22.97;30.40
73245;BME280;61460;41.158;-73.238;2023-02-28T03:31:37;100863.62;;;23.01;30.40
73245;BME280;61460;41.158;-73.238;2023-02-28T03:34:07;100849.36;;;23.01;30.47
73245;BME280;61460;41.158;-73.238;2023-02-28T03:36:38;100819.14;;;23.02;30.37
73245;BME280;61460;41.158;-73.238;2023-02-28T03:39:08;100811.32;;;23.03;30.34
73245;BME280;61460;41.158;-73.238;2023-02-28T03:41:40;100788.88;;;22.87;30.25
73245;BME280;61460;41.158;-73.238;2023-02-28T03:44:11;100775.57;;;22.79;30.40
73245;BME280;61460;41.158;-73.238;2023-02-28T03:46:41;100782.99;;;22.78;30.52
73245;BME280;61460;41.158;-73.238;2023-02-28T03:49:14;100772.18;;;22.79;30.85
73245;BME280;61460;41.158;-73.238;2023-02-28T03:51:39;100774.10;;;22.84;30.76
73245;BME280;61460;41.158;-73.238;2023-02-28T03:54:13;100772.95;;;22.85;30.78
73245;BME280;61460;41.158;-73.238;2023-02-28T03:56:45;100762.77;;;22.87;30.78
73245;BME280;61460;41.158;-73.238;2023-02-28T03:59:14;100756.85;;;22.92;30.20
73245;BME280;61460;41.158;-73.238;2023-02-28T04:01:43;100740.21;;;22.78;30.40
73245;BME280;61460;41.158;-73.238;2023-02-28T04:04:13;100723.20;;;22.74;30.50
73245;BME280;61460;41.158;-73.238;2023-02-28T04:06:43;100713.41;;;22.72;30.76
73245;BME280;61460;41.158;-73.238;2023-02-28T04:09:14;100700.88;;;22.79;30.71
73245;BME280;61460;41.158;-73.238;2023-02-28T04:11:47;100688.32;;;22.82;30.77
73245;BME280;61460;41.158;-73.238;2023-02-28T04:14:14;100678.97;;;22.87;30.69
73245;BME280;61460;41.158;-73.238;2023-02-28T04:16:45;100682.53;;;22.91;30.23
73245;BME280;61460;41.158;-73.238;2023-02-28T04:19:15;100694.98;;;22.88;30.58
73245;BME280;61460;41.158;-73.238;2023-02-28T04:21:48;100692.03;;;22.76;31.32
73245;BME280;61460;41.158;-73.238;2023-02-28T04:24:19;100667.36;;;22.68;31.49
73245;BME280;61460;41.158;-73.238;2023-02-28T04:26:49;100655.66;;;22.76;31.19
73245;BME280;61460;41.158;-73.238;2023-02-28T04:29:19;100656.48;;;22.85;31.40
73245;BME280;61460;41.158;-73.238;2023-02-28T04:31:49;100657.49;;;22.77;31.48
73245;BME280;61460;41.158;-73.238;2023-02-28T04:34:20;100641.84;;;22.42;31.13
73245;BME280;61460;41.158;-73.238;2023-02-28T04:36:50;100624.60;;;22.13;31.66
73245;BME280;61460;41.158;-73.238;2023-02-28T04:39:21;100620.29;;;22.78;30.93
73245;BME280;61460;41.158;-73.238;2023-02-28T04:41:51;100602.95;;;22.69;31.22
73245;BME280;61460;41.158;-73.238;2023-02-28T04:44:22;100589.85;;;22.74;31.15
73245;BME280;61460;41.158;-73.238;2023-02-28T04:46:53;100582.68;;;22.78;31.23
73245;BME280;61460;41.158;-73.238;2023-02-28T04:49:23;100581.03;;;22.78;31.03
73245;BME280;61460;41.158;-73.238;2023-02-28T04:51:54;100573.30;;;22.34;31.27
73245;BME280;61460;41.158;-73.238;2023-02-28T04:54:25;100569.02;;;22.39;31.16
73245;BME280;61460;41.158;-73.238;2023-02-28T04:56:55;100569.86;;;22.53;31.25
73245;BME280;61460;41.158;-73.238;2023-02-28T04:59:26;100561.26;;;22.60;31.11
73245;BME280;61460;41.158;-73.238;2023-02-28T05:01:57;100562.56;;;22.61;31.21
73245;BME280;61460;41.158;-73.238;2023-02-28T05:04:27;100559.04;;;22.52;31.17
73245;BME280;61460;41.158;-73.238;2023-02-28T05:06:58;100557.13;;;22.20;31.27
73245;BME280;61460;41.158;-73.238;2023-02-28T05:09:29;100552.57;;;22.10;32.03
73245;BME280;61460;41.158;-73.238;2023-02-28T05:11:59;100558.09;;;22.13;31.86
73245;BME280;61460;41.158;-73.238;2023-02-28T05:14:31;100545.68;;;22.30;31.85
73245;BME280;61460;41.158;-73.238;2023-02-28T05:17:01;100538.65;;;22.32;31.62
73245;BME280;61460;41.158;-73.238;2023-02-28T05:19:31;100535.94;;;22.36;31.44
73245;BME280;61460;41.158;-73.238;2023-02-28T05:22:02;100532.47;;;22.12;31.72
73245;BME280;61460;41.158;-73.238;2023-02-28T05:24:36;100537.67;;;22.19;31.52
73245;BME280;61460;41.158;-73.238;2023-02-28T05:27:03;100538.69;;;22.24;31.56
73245;BME280;61460;41.158;-73.238;2023-02-28T05:29:34;100541.43;;;22.22;31.67
73245;BME280;61460;41.158;-73.238;2023-02-28T05:32:05;100523.47;;;22.13;31.63
73245;BME280;61460;41.158;-73.238;2023-02-28T05:34:36;100525.53;;;22.02;31.84
73245;BME280;61460;41.158;-73.238;2023-02-28T05:37:08;100509.10;;;21.80;31.64
73245;BME280;61460;41.158;-73.238;2023-02-28T05:39:37;100506.05;;;21.80;31.72
73245;BME280;61460;41.158;-73.238;2023-02-28T05:42:08;100500.73;;;21.87;31.81
73245;BME280;61460;41.158;-73.238;2023-02-28T05:44:38;100494.57;;;21.88;32.05
73245;BME280;61460;41.158;-73.238;2023-02-28T05:47:08;100486.07;;;21.88;31.48
73245;BME280;61460;41.158;-73.238;2023-02-28T05:49:39;100477.27;;;21.73;32.11
73245;BME280;61460;41.158;-73.238;2023-02-28T05:52:10;100474.87;;;21.76;31.95
73245;BME280;61460;41.158;-73.238;2023-02-28T05:54:41;100469.98;;;21.61;31.88
73245;BME280;61460;41.158;-73.238;2023-02-28T05:57:11;100464.47;;;21.72;31.94
73245;BME280;61460;41.158;-73.238;2023-02-28T05:59:42;100457.65;;;21.50;32.54
73245;BME280;61460;41.158;-73.238;2023-02-28T06:02:15;100453.37;;;21.63;32.57
73245;BME280;61460;41.158;-73.238;2023-02-28T06:04:44;100443.79;;;21.68;32.34
73245;BME280;61460;41.158;-73.238;2023-02-28T06:07:14;100438.76;;;21.68;32.22
73245;BME280;61460;41.158;-73.238;2023-02-28T06:09:45;100435.59;;;21.70;32.30
73245;BME280;61460;41.158;-73.238;2023-02-28T06:12:15;100426.77;;;21.50;32.05
73245;BME280;61460;41.158;-73.238;2023-02-28T06:14:46;100419.41;;;21.57;32.01
73245;BME280;61460;41.158;-73.238;2023-02-28T06:17:16;100421.70;;;21.67;32.27
73245;BME280;61460;41.158;-73.238;2023-02-28T06:19:47;100419.23;;;21.68;32.24
73245;BME280;61460;41.158;-73.238;2023-02-28T06:22:18;100416.65;;;21.61;32.36
73245;BME280;61460;41.158;-73.238;2023-02-28T06:24:48;100408.34;;;21.59;32.27
73245;BME280;61460;41.158;-73.238;2023-02-28T06:27:19;100412.13;;;21.58;32.26
73245;BME280;61460;41.158;-73.238;2023-02-28T06:29:53;100402.38;;;21.49;31.84
73245;BME280;61460;41.158;-73.238;2023-02-28T06:32:20;100385.83;;;21.50;31.89
73245;BME280;61460;41.158;-73.238;2023-02-28T06:34:51;100378.63;;;21.60;31.80
73245;BME280;61460;41.158;-73.238;2023-02-28T06:37:22;100383.12;;;21.54;32.47
73245;BME280;61460;41.158;-73.238;2023-02-28T06:39:53;100380.66;;;21.49;32.36
73245;BME280;61460;41.158;-73.238;2023-02-28T06:42:24;100405.09;;;21.50;32.48
73245;BME280;61460;41.158;-73.238;2023-02-28T06:44:54;100390.34;;;21.49;32.47
73245;BME280;61460;41.158;-73.238;2023-02-28T06:47:24;100395.49;;;21.32;32.09
73245;BME280;61460;41.158;-73.238;2023-02-28T06:49:55;100395.90;;;21.36;32.28
73245;BME280;61460;41.158;-73.238;2023-02-28T06:52:26;100382.40;;;21.47;32.15
73245;BME280;61460;41.158;-73.238;2023-02-28T06:54:56;100367.81;;;21.37;32.46
73245;BME280;61460;41.158;-73.238;2023-02-28T06:57:28;100375.73;;;21.31;33.07
73245;BME280;61460;41.158;-73.238;2023-02-28T06:59:58;100374.68;;;21.35;32.97
73245;BME280;61460;41.158;-73.238;2023-02-28T07:02:28;100364.75;;;21.35;33.11
73245;BME280;61460;41.158;-73.238;2023-02-28T07:04:59;100365.10;;;21.24;32.47
73245;BME280;61460;41.158;-73.238;2023-02-28T07:07:30;100362.04;;;21.32;32.97
73245;BME280;61460;41.158;-73.238;2023-02-28T07:10:00;100350.89;;;21.34;33.17
73245;BME280;61460;41.158;-73.238;2023-02-28T07:12:31;100351.30;;;21.37;34.44
73245;BME280;61460;41.158;-73.238;2023-02-28T07:15:02;100342.30;;;21.47;33.80
73245;BME280;61460;41.158;-73.238;2023-02-28T07:17:32;100342.96;;;21.50;33.89
73245;BME280;61460;41.158;-73.238;2023-02-28T07:20:03;100332.56;;;21.46;32.49
73245;BME280;61460;41.158;-73.238;2023-02-28T07:22:34;100337.97;;;21.21;33.02
73245;BME280;61460;41.158;-73.238;2023-02-28T07:25:05;100348.15;;;21.47;32.67
73245;BME280;61460;41.158;-73.238;2023-02-28T07:27:36;100353.61;;;21.53;33.26
73245;BME280;61460;41.158;-73.238;2023-02-28T07:30:07;100356.58;;;21.58;33.09
73245;BME280;61460;41.158;-73.238;2023-02-28T07:32:36;100358.86;;;21.61;32.82
73245;BME280;61460;41.158;-73.238;2023-02-28T07:35:08;100351.82;;;21.63;32.80
73245;BME280;61460;41.158;-73.238;2023-02-28T07:37:38;100347.19;;;21.64;32.90
73245;BME280;61460;41.158;-73.238;2023-02-28T07:40:10;100335.17;;;21.52;32.69
73245;BME280;61460;41.158;-73.238;2023-02-28T07:42:41;100339.02;;;21.66;32.55
73245;BME280;61460;41.158;-73.238;2023-02-28T07:45:11;100347.16;;;21.65;32.94
73245;BME280;61460;41.158;-73.238;2023-02-28T07:47:41;100335.56;;;21.64;32.92
73245;BME280;61460;41.158;-73.238;2023-02-28T07:50:13;100340.36;;;21.68;32.74
73245;BME280;61460;41.158;-73.238;2023-02-28T07:52:42;100341.95;;;21.67;32.58
73245;BME280;61460;41.158;-73.238;2023-02-28T07:55:13;100348.90;;;21.62;32.64
73245;BME280;61460;41.158;-73.238;2023-02-28T07:57:43;100349.52;;;21.60;32.65
73245;BME280;61460;41.158;-73.238;2023-02-28T08:00:14;100351.07;;;21.64;32.84
73245;BME280;61460;41.158;-73.238;2023-02-28T08:02:44;100353.85;;;21.67;32.62
73245;BME280;61460;41.158;-73.238;2023-02-28T08:05:15;100347.70;;;21.74;32.55
73245;BME280;61460;41.158;-73.238;2023-02-28T08:07:45;100337.05;;;21.76;32.45
73245;BME280;61460;41.158;-73.238;2023-02-28T08:10:17;100334.60;;;21.61;32.49
73245;BME280;61460;41.158;-73.238;2023-02-28T08:12:47;100339.12;;;21.56;32.61
73245;BME280;61460;41.158;-73.238;2023-02-28T08:15:18;100336.19;;;21.59;32.93
73245;BME280;61460;41.158;-73.238;2023-02-28T08:17:48;100335.33;;;21.65;33.34
73245;BME280;61460;41.158;-73.238;2023-02-28T08:20:19;100331.47;;;21.72;33.04
73245;BME280;61460;41.158;-73.238;2023-02-28T08:22:49;100328.18;;;21.71;33.03
73245;BME280;61460;41.158;-73.238;2023-02-28T08:25:21;100324.39;;;21.69;33.13
73245;BME280;61460;41.158;-73.238;2023-02-28T08:27:52;100316.72;;;21.54;32.66
73245;BME280;61460;41.158;-73.238;2023-02-28T08:30:22;100315.94;;;21.74;32.71
73245;BME280;61460;41.158;-73.238;2023-02-28T08:32:52;100316.87;;;21.58;33.11
73245;BME280;61460;41.158;-73.238;2023-02-28T08:35:23;100326.47;;;21.74;33.03
73245;BME280;61460;41.158;-73.238;2023-02-28T08:37:53;100335.32;;;21.86;32.98
73245;BME280;61460;41.158;-73.238;2023-02-28T08:40:24;100339.96;;;21.95;32.83
73245;BME280;61460;41.158;-73.238;2023-02-28T08:42:55;100346.79;;;22.01;32.27
73245;BME280;61460;41.158;-73.238;2023-02-28T08:45:26;100349.24;;;21.70;32.81
73245;BME280;61460;41.158;-73.238;2023-02-28T08:47:56;100350.35;;;21.82;32.81
73245;BME280;61460;41.158;-73.238;2023-02-28T08:50:27;100343.25;;;21.82;33.03
73245;BME280;61460;41.158;-73.238;2023-02-28T08:52:57;100340.79;;;21.87;32.92
73245;BME280;61460;41.158;-73.238;2023-02-28T08:55:28;100335.56;;;21.89;32.80
73245;BME280;61460;41.158;-73.238;2023-02-28T08:57:59;100337.70;;;21.97;32.61
73245;BME280;61460;41.158;-73.238;2023-02-28T09:00:29;100342.61;;;21.83;32.56
73245;BME280;61460;41.158;-73.238;2023-02-28T09:03:00;100345.64;;;21.68;33.19
73245;BME280;61460;41.158;-73.238;2023-02-28T09:05:31;100349.34;;;21.78;33.41
73245;BME280;61460;41.158;-73.238;2023-02-28T09:08:01;100339.22;;;21.87;32.94
73245;BME280;61460;41.158;-73.238;2023-02-28T09:10:32;100342.70;;;21.89;32.92
73245;BME280;61460;41.158;-73.238;2023-02-28T09:13:03;100343.07;;;21.85;33.09
73245;BME280;61460;41.158;-73.238;2023-02-28T09:15:33;100342.57;;;21.71;32.93
73245;BME280;61460;41.158;-73.238;2023-02-28T09:18:04;100350.50;;;21.66;33.30
73245;BME280;61460;41.158;-73.238;2023-02-28T09:20:37;100346.43;;;21.64;33.66
73245;BME280;61460;41.158;-73.238;2023-02-28T09:23:05;100351.66;;;21.74;33.54
73245;BME280;61460;41.158;-73.238;2023-02-28T09:25:36;100358.12;;;21.86;33.76
73245;BME280;61460;41.158;-73.238;2023-02-28T09:28:07;100354.63;;;22.00;33.43
73245;BME280;61460;41.158;-73.238;2023-02-28T09:30:37;100354.30;;;22.03;33.54
73245;BME280;61460;41.158;-73.238;2023-02-28T09:33:08;100355.94;;;21.87;32.88
73245;BME280;61460;41.158;-73.238;2023-02-28T09:35:39;100361.03;;;21.83;33.01
73245;BME280;61460;41.158;-73.238;2023-02-28T09:38:10;100369.03;;;21.89;34.14
73245;BME280;61460;41.158;-73.238;2023-02-28T09:40:47;100369.03;;;21.90;33.58
73245;BME280;61460;41.158;-73.238;2023-02-28T09:43:13;100380.83;;;22.01;33.55
73245;BME280;61460;41.158;-73.238;2023-02-28T09:45:44;100382.10;;;22.01;33.21
73245;BME280;61460;41.158;-73.238;2023-02-28T09:48:14;100381.34;;;21.83;32.79
73245;BME280;61460;41.158;-73.238;2023-02-28T09:50:47;100382.86;;;21.74;33.16
73245;BME280;61460;41.158;-73.238;2023-02-28T09:53:18;100392.17;;;21.84;33.87
73245;BME280;61460;41.158;-73.238;2023-02-28T09:55:47;100392.57;;;21.85;33.26
73245;BME280;61460;41.158;-73.238;2023-02-28T09:58:19;100395.67;;;21.93;33.36
73245;BME280;61460;41.158;-73.238;2023-02-28T10:00:47;100398.43;;;21.92;33.13
73245;BME280;61460;41.158;-73.238;2023-02-28T10:03:25;100396.96;;;21.68;32.83
73245;BME280;61460;41.158;-73.238;2023-02-28T10:05:51;100384.65;;;21.81;32.77
73245;BME280;61460;41.158;-73.238;2023-02-28T10:08:21;100401.53;;;21.70;33.31
73245;BME280;61460;41.158;-73.238;2023-02-28T10:10:50;100401.72;;;21.82;33.75
73245;BME280;61460;41.158;-73.238;2023-02-28T10:13:25;100397.50;;;21.93;33.64
73245;BME280;61460;41.158;-73.238;2023-02-28T10:15:52;100397.79;;;21.99;33.38
73245;BME280;61460;41.158;-73.238;2023-02-28T10:18:24;100395.02;;;21.99;33.13
73245;BME280;61460;41.158;-73.238;2023-02-28T10:20:51;100393.75;;;21.77;32.80
73245;BME280;61460;41.158;-73.238;2023-02-28T10:23:26;100393.60;;;21.73;33.01
73245;BME280;61460;41.158;-73.238;2023-02-28T10:25:57;100398.39;;;21.76;33.49
73245;BME280;61460;41.158;-73.238;2023-02-28T10:28:25;100402.72;;;21.85;32.98
73245;BME280;61460;41.158;-73.238;2023-02-28T10:30:54;100395.63;;;21.85;33.26
73245;BME280;61460;41.158;-73.238;2023-02-28T10:33:26;100398.37;;;21.90;33.69
73245;BME280;61460;41.158;-73.238;2023-02-28T10:35:55;100397.50;;;21.94;33.52
73245;BME280;61460;41.158;-73.238;2023-02-28T10:38:27;100397.64;;;21.74;33.49
73245;BME280;61460;41.158;-73.238;2023-02-28T10:41:04;100397.57;;;21.90;32.88
73245;BME280;61460;41.158;-73.238;2023-02-28T10:43:26;100393.16;;;21.76;33.29
73245;BME280;61460;41.158;-73.238;2023-02-28T10:46:01;100398.46;;;21.88;34.12
73245;BME280;61460;41.158;-73.238;2023-02-28T10:48:32;100405.57;;;21.92;33.86
73245;BME280;61460;41.158;-73.238;2023-02-28T10:50:58;100404.79;;;21.93;33.92
73245;BME280;61460;41.158;-73.238;2023-02-28T10:53:32;100406.67;;;21.84;33.15
73245;BME280;61460;41.158;-73.238;2023-02-28T10:56:01;100412.19;;;21.73;33.15
73245;BME280;61460;41.158;-73.238;2023-02-28T10:58:34;100415.65;;;21.80;33.14
73245;BME280;61460;41.158;-73.238;2023-02-28T11:01:01;100418.74;;;21.75;33.61
73245;BME280;61460;41.158;-73.238;2023-02-28T11:03:34;100414.49;;;21.79;33.59
73245;BME280;61460;41.158;-73.238;2023-02-28T11:06:07;100413.54;;;21.81;33.64
73245;BME280;61460;41.158;-73.238;2023-02-28T11:08:33;100417.89;;;21.89;33.59
73245;BME280;61460;41.158;-73.238;2023-02-28T11:11:06;100419.55;;;21.81;33.55
73245;BME280;61460;41.158;-73.238;2023-02-28T11:13:35;100421.58;;;21.72;33.31
73245;BME280;61460;41.158;-73.238;2023-02-28T11:16:07;100425.71;;;21.63;33.65
73245;BME280;61460;41.158;-73.238;2023-02-28T11:18:40;100432.59;;;21.75;33.44
73245;BME280;61460;41.158;-73.238;2023-02-28T11:21:06;100430.89;;;21.82;33.61
73245;BME280;61460;41.158;-73.238;2023-02-28T11:23:40;100432.21;;;21.88;33.42
73245;BME280;61460;41.158;-73.238;2023-02-28T11:26:07;100426.03;;;21.90;33.53
73245;BME280;61460;41.158;-73.238;2023-02-28T11:28:40;100418.50;;;21.83;33.00
73245;BME280;61460;41.158;-73.238;2023-02-28T11:31:15;100414.77;;;21.74;33.09
73245;BME280;61460;41.158;-73.238;2023-02-28T11:33:43;100404.89;;;21.82;33.19
73245;BME280;61460;41.158;-73.238;2023-02-28T11:36:13;100407.19;;;21.81;33.28
73245;BME280;61460;41.158;-73.238;2023-02-28T11:38:41;100408.40;;;21.87;33.28
73245;BME280;61460;41.158;-73.238;2023-02-28T11:41:25;100409.74;;;21.95;33.47
73245;BME280;61460;41.158;-73.238;2023-02-28T11:43:54;100412.84;;;21.89;32.90
73245;BME280;61460;41.158;-73.238;2023-02-28T11:46:20;100412.07;;;21.76;34.14
73245;BME280;61460;41.158;-73.238;2023-02-28T11:48:50;100409.85;;;21.80;33.44
73245;BME280;61460;41.158;-73.238;2023-02-28T11:51:19;100399.55;;;21.87;33.69
73245;BME280;61460;41.158;-73.238;2023-02-28T11:53:56;100399.19;;;21.96;33.57
73245;BME280;61460;41.158;-73.238;2023-02-28T11:56:22;100402.83;;;21.99;33.52
73245;BME280;61460;41.158;-73.238;2023-02-28T11:58:55;100395.62;;;21.69;33.82
73245;BME280;61460;41.158;-73.238;2023-02-28T12:01:28;100404.33;;;21.79;34.18
73245;BME280;61460;41.158;-73.238;2023-02-28T12:03:58;100410.95;;;21.78;34.05
73245;BME280;61460;41.158;-73.238;2023-02-28T12:06:23;100416.03;;;21.87;33.81
73245;BME280;61460;41.158;-73.238;2023-02-28T12:08:58;100414.01;;;21.87;33.98
73245;BME280;61460;41.158;-73.238;2023-02-28T12:11:28;100417.62;;;21.83;34.00
73245;BME280;61460;41.158;-73.238;2023-02-28T12:13:56;100424.03;;;21.69;34.20
73245;BME280;61460;41.158;-73.238;2023-02-28T12:16:29;100424.00;;;21.87;34.29
73245;BME280;61460;41.158;-73.238;2023-02-28T12:19:01;100432.46;;;21.84;34.74
73245;BME280;61460;41.158;-73.238;2023-02-28T12:21:30;100432.20;;;21.88;34.53
73245;BME280;61460;41.158;-73.238;2023-02-28T12:26:30;100442.22;;;21.89;35.07
73245;BME280;61460;41.158;-73.238;2023-02-28T12:28:59;100441.58;;;21.73;34.88
73245;BME280;61460;41.158;-73.238;2023-02-28T12:31:27;100441.16;;;21.63;34.87
73245;BME280;61460;41.158;-73.238;2023-02-28T12:34:00;100441.85;;;21.45;35.48
73245;BME280;61460;41.158;-73.238;2023-02-28T12:36:27;100449.08;;;21.52;35.41
73245;BME280;61460;41.158;-73.238;2023-02-28T12:39:00;100455.35;;;21.77;35.08
73245;BME280;61460;41.158;-73.238;2023-02-28T12:41:32;100457.37;;;21.89;34.60
73245;BME280;61460;41.158;-73.238;2023-02-28T12:44:03;100459.48;;;21.99;34.42
73245;BME280;61460;41.158;-73.238;2023-02-28T12:46:33;100466.34;;;22.01;34.46
73245;BME280;61460;41.158;-73.238;2023-02-28T12:49:01;100466.86;;;22.16;34.22
73245;BME280;61460;41.158;-73.238;2023-02-28T12:51:30;100454.88;;;22.18;34.17
73245;BME280;61460;41.158;-73.238;2023-02-28T12:54:08;100456.12;;;22.10;34.33
73245;BME280;61460;41.158;-73.238;2023-02-28T12:56:38;100458.36;;;22.15;34.21
73245;BME280;61460;41.158;-73.238;2023-02-28T12:59:07;100462.92;;;22.27;34.14
73245;BME280;61460;41.158;-73.238;2023-02-28T13:01:45;100459.47;;;22.22;34.23